Espaço - Ciências - Fenômenos Naturais
Meteógrafos Informações Meteorológicas em tempo real

Aeroporto Castro Pinto

Histórico do Tempo
Temperatura atual: 23 graus 73 F    Umidade relativa: 100 %
Velocidade do vento: 07 nós 12 Km/h    Direção: 160 graus SSE
Ajuste do altímetro ..: 1014 HPA
Visibilidade: Ótima    Tempo presente: Chovendo fraco

Observação
Céu nublado a 800 Pés., Céu nublado a 1000 Pés.

Data Hora BRTTempo°CUmidadePressãoVentoVisib.
20/10 - 03:55   Chovendo fraco 23° 100% 1014 Sul-sudeste/12 km/h OK
20/10 - 02:55   Chovendo fraco 24° 100% 1015 Sul/9 km/h 5000
20/10 - 01:55   Parcialmente Nublado 24° 100% 1015 Sul/12 km/h OK
20/10 - 00:55   Parcialmente Nublado 23° 100% 1016 Sul/9 km/h OK
19/10 - 23:55   Parcialmente Nublado 24° 100% 1017 Sul/10 km/h OK
19/10 - 22:55   Céu Limpo 24° 88% 1017 Sul/10 km/h OK
19/10 - 21:56   Céu Limpo 24° 94% 1016 Sul/10 km/h OK
19/10 - 20:56   Poucas nuvens esparsas 25° 83% 1016 Sul/14 km/h OK
19/10 - 19:56   Parcialmente Nublado 26° 74% 1015 Sul/18 km/h OK
19/10 - 18:55   Poucas nuvens esparsas 26° 74% 1015 Sul-sudeste/27 km/h OK
19/10 - 17:55   Parcialmente Nublado 27° 69% 1014 Sul-sudeste/25 km/h OK
19/10 - 16:55   Parcialmente Nublado 26° 83% 1014 Sul/19 km/h OK
19/10 - 15:55   Parcialmente Nublado 27° 69% 1015 Sul-sudeste/28 km/h OK
19/10 - 14:55   Nuvens esparsas 30° 51% 1015 Sul-sudeste/25 km/h OK
19/10 - 13:55   Parcialmente Nublado 29° 58% 1016 Sul-sudeste/28 km/h OK
19/10 - 12:55   Parcialmente Nublado 29° 58% 1017 Sudeste/25 km/h OK
19/10 - 11:56   Parcialmente Nublado 29° 58% 1017 Sudeste/28 km/h OK
19/10 - 10:55   Parcialmente Nublado 27° 69% 1017 Sul-sudeste/28 km/h OK
19/10 - 09:55   Parcialmente Nublado 27° 69% 1017 Sudeste/27 km/h OK
19/10 - 08:55   Parcialmente Nublado 27° 74% 1017 Sul-sudeste/21 km/h OK
19/10 - 07:55   Poucas nuvens esparsas 24° 83% 1016 Sul-sudeste/10 km/h OK
19/10 - 06:55   Poucas nuvens esparsas 24° 83% 1016 Sul/10 km/h OK
19/10 - 05:55   Poucas nuvens esparsas 24° 83% 1015 Sul-sudeste/27 km/h OK
19/10 - 04:55   Poucas nuvens esparsas 24° 83% 1015 Sul-sudeste/18 km/h OK


Apolo11.com - Todos os direitos reservados - 2000 - 2017
Política de Privacidade   |     Termo de Uso e Licenciamento   |  -   Entre em Contato

"A ânsia de salvar a humanidade é quase sempre um disfarce para a ânsia de governá-la" - H.L.Menchen